﻿<?xml version="1.0" encoding="utf-8"?><gpx creator="Garmin Desktop App" version="1.1" xsi:schemaLocation="http://www.topografix.com/GPX/1/1 http://www.topografix.com/GPX/1/1/gpx.xsd http://www.garmin.com/xmlschemas/WaypointExtension/v1 http://www8.garmin.com/xmlschemas/WaypointExtensionv1.xsd http://www.garmin.com/xmlschemas/TrackPointExtension/v1 http://www.garmin.com/xmlschemas/TrackPointExtensionv1.xsd http://www.garmin.com/xmlschemas/GpxExtensions/v3 http://www8.garmin.com/xmlschemas/GpxExtensionsv3.xsd http://www.garmin.com/xmlschemas/ActivityExtension/v1 http://www8.garmin.com/xmlschemas/ActivityExtensionv1.xsd http://www.garmin.com/xmlschemas/AdventuresExtensions/v1 http://www8.garmin.com/xmlschemas/AdventuresExtensionv1.xsd http://www.garmin.com/xmlschemas/PressureExtension/v1 http://www.garmin.com/xmlschemas/PressureExtensionv1.xsd http://www.garmin.com/xmlschemas/TripExtensions/v1 http://www.garmin.com/xmlschemas/TripExtensionsv1.xsd http://www.garmin.com/xmlschemas/TripMetaDataExtensions/v1 http://www.garmin.com/xmlschemas/TripMetaDataExtensionsv1.xsd http://www.garmin.com/xmlschemas/ViaPointTransportationModeExtensions/v1 http://www.garmin.com/xmlschemas/ViaPointTransportationModeExtensionsv1.xsd http://www.garmin.com/xmlschemas/CreationTimeExtension/v1 http://www.garmin.com/xmlschemas/CreationTimeExtensionsv1.xsd http://www.garmin.com/xmlschemas/AccelerationExtension/v1 http://www.garmin.com/xmlschemas/AccelerationExtensionv1.xsd http://www.garmin.com/xmlschemas/PowerExtension/v1 http://www.garmin.com/xmlschemas/PowerExtensionv1.xsd http://www.garmin.com/xmlschemas/VideoExtension/v1 http://www.garmin.com/xmlschemas/VideoExtensionv1.xsd" xmlns="http://www.topografix.com/GPX/1/1" xmlns:xsi="http://www.w3.org/2001/XMLSchema-instance" xmlns:wptx1="http://www.garmin.com/xmlschemas/WaypointExtension/v1" xmlns:gpxtrx="http://www.garmin.com/xmlschemas/GpxExtensions/v3" xmlns:gpxtpx="http://www.garmin.com/xmlschemas/TrackPointExtension/v1" xmlns:gpxx="http://www.garmin.com/xmlschemas/GpxExtensions/v3" xmlns:trp="http://www.garmin.com/xmlschemas/TripExtensions/v1" xmlns:adv="http://www.garmin.com/xmlschemas/AdventuresExtensions/v1" xmlns:prs="http://www.garmin.com/xmlschemas/PressureExtension/v1" xmlns:tmd="http://www.garmin.com/xmlschemas/TripMetaDataExtensions/v1" xmlns:vptm="http://www.garmin.com/xmlschemas/ViaPointTransportationModeExtensions/v1" xmlns:ctx="http://www.garmin.com/xmlschemas/CreationTimeExtension/v1" xmlns:gpxacc="http://www.garmin.com/xmlschemas/AccelerationExtension/v1" xmlns:gpxpx="http://www.garmin.com/xmlschemas/PowerExtension/v1" xmlns:vidx1="http://www.garmin.com/xmlschemas/VideoExtension/v1">

  <metadata>
    <link href="http://www.garmin.com">
      <text>Garmin International</text>
    </link>
    <time>2024-09-23T09:17:38Z</time>
    <bounds maxlat="45.96150697208941" maxlon="9.517490370199084" minlat="45.952984252944589" minlon="9.487653141841292" />
  </metadata>

  <trk>
    <name>ferrata minonzio2024-09-22</name>
    <extensions>
      <gpxx:TrackExtension>
        <gpxx:DisplayColor>Yellow</gpxx:DisplayColor>
      </gpxx:TrackExtension>
    </extensions>
    <trkseg>
      <trkpt lat="45.961442431434989" lon="9.488289831206203">
        <ele>1644.45</ele>
        <time>2024-09-22T06:50:06Z</time>
      </trkpt>
      <trkpt lat="45.961332796141505" lon="9.488813281059265">
        <ele>1647.8099999999999</ele>
        <time>2024-09-22T06:53:33Z</time>
      </trkpt>
      <trkpt lat="45.961385434493423" lon="9.489447204396129">
        <ele>1652.6600000000001</ele>
        <time>2024-09-22T06:54:21Z</time>
      </trkpt>
      <trkpt lat="45.961239924654365" lon="9.490094622597098">
        <ele>1657.3900000000001</ele>
        <time>2024-09-22T06:55:08Z</time>
      </trkpt>
      <trkpt lat="45.961229614913464" lon="9.490736005827785">
        <ele>1659.77</ele>
        <time>2024-09-22T06:55:52Z</time>
      </trkpt>
      <trkpt lat="45.961325755342841" lon="9.49135928414762">
        <ele>1658.9300000000001</ele>
        <time>2024-09-22T06:56:34Z</time>
      </trkpt>
      <trkpt lat="45.961037753149867" lon="9.491879465058446">
        <ele>1660.8099999999999</ele>
        <time>2024-09-22T06:57:21Z</time>
      </trkpt>
      <trkpt lat="45.960551016032696" lon="9.491833448410034">
        <ele>1661.8199999999999</ele>
        <time>2024-09-22T06:58:14Z</time>
      </trkpt>
      <trkpt lat="45.959978448227048" lon="9.49217819608748">
        <ele>1665.1800000000001</ele>
        <time>2024-09-22T06:59:07Z</time>
      </trkpt>
      <trkpt lat="45.959831597283483" lon="9.492874313145876">
        <ele>1669.79</ele>
        <time>2024-09-22T06:59:58Z</time>
      </trkpt>
      <trkpt lat="45.959863364696503" lon="9.493561629205942">
        <ele>1673.4000000000001</ele>
        <time>2024-09-22T07:00:43Z</time>
      </trkpt>
      <trkpt lat="45.960218003019691" lon="9.494044259190559">
        <ele>1674.4100000000001</ele>
        <time>2024-09-22T07:01:21Z</time>
      </trkpt>
      <trkpt lat="45.96015689894557" lon="9.494662340730429">
        <ele>1674.01</ele>
        <time>2024-09-22T07:01:59Z</time>
      </trkpt>
      <trkpt lat="45.960249435156584" lon="9.495278410613537">
        <ele>1678.3900000000001</ele>
        <time>2024-09-22T07:02:41Z</time>
      </trkpt>
      <trkpt lat="45.96030006185174" lon="9.495950387790799">
        <ele>1682.49</ele>
        <time>2024-09-22T07:03:24Z</time>
      </trkpt>
      <trkpt lat="45.960304755717516" lon="9.496582970023155">
        <ele>1687.49</ele>
        <time>2024-09-22T07:04:09Z</time>
      </trkpt>
      <trkpt lat="45.960222948342562" lon="9.497233405709267">
        <ele>1692.48</ele>
        <time>2024-09-22T07:04:55Z</time>
      </trkpt>
      <trkpt lat="45.960011808201671" lon="9.49781259521842">
        <ele>1700.0599999999999</ele>
        <time>2024-09-22T07:05:43Z</time>
      </trkpt>
      <trkpt lat="45.959778120741248" lon="9.498343337327242">
        <ele>1705.3499999999999</ele>
        <time>2024-09-22T07:06:28Z</time>
      </trkpt>
      <trkpt lat="45.95964677631855" lon="9.498931830748916">
        <ele>1709.54</ele>
        <time>2024-09-22T07:07:11Z</time>
      </trkpt>
      <trkpt lat="45.959556000307202" lon="9.499569609761238">
        <ele>1715.05</ele>
        <time>2024-09-22T07:07:58Z</time>
      </trkpt>
      <trkpt lat="45.959220053628087" lon="9.499889044091106">
        <ele>1719.8599999999999</ele>
        <time>2024-09-22T07:08:47Z</time>
      </trkpt>
      <trkpt lat="45.958771118894219" lon="9.499797513708472">
        <ele>1726.4000000000001</ele>
        <time>2024-09-22T07:09:37Z</time>
      </trkpt>
      <trkpt lat="45.958395358175039" lon="9.50010672211647">
        <ele>1734.3599999999999</ele>
        <time>2024-09-22T07:10:35Z</time>
      </trkpt>
      <trkpt lat="45.958083719015121" lon="9.500577785074711">
        <ele>1742.9000000000001</ele>
        <time>2024-09-22T07:11:33Z</time>
      </trkpt>
      <trkpt lat="45.957761602476239" lon="9.501071479171515">
        <ele>1751.76</ele>
        <time>2024-09-22T07:12:30Z</time>
      </trkpt>
      <trkpt lat="45.95737905241549" lon="9.501415053382516">
        <ele>1757.1900000000001</ele>
        <time>2024-09-22T07:13:16Z</time>
      </trkpt>
      <trkpt lat="45.956984013319016" lon="9.501712024211884">
        <ele>1762.48</ele>
        <time>2024-09-22T07:14:02Z</time>
      </trkpt>
      <trkpt lat="45.956687293946743" lon="9.502172945067287">
        <ele>1770.3599999999999</ele>
        <time>2024-09-22T07:14:52Z</time>
      </trkpt>
      <trkpt lat="45.956343300640583" lon="9.502600086852908">
        <ele>1780.1900000000001</ele>
        <time>2024-09-22T07:15:49Z</time>
      </trkpt>
      <trkpt lat="45.956137189641595" lon="9.502842240035534">
        <ele>1781.0799999999999</ele>
        <time>2024-09-22T07:21:44Z</time>
      </trkpt>
      <trkpt lat="45.956159150227904" lon="9.503473397344351">
        <ele>1784.4400000000001</ele>
        <time>2024-09-22T07:24:07Z</time>
      </trkpt>
      <trkpt lat="45.956087401136756" lon="9.504124587401748">
        <ele>1787.79</ele>
        <time>2024-09-22T07:24:54Z</time>
      </trkpt>
      <trkpt lat="45.956027805805206" lon="9.504766808822751">
        <ele>1792.7</ele>
        <time>2024-09-22T07:25:43Z</time>
      </trkpt>
      <trkpt lat="45.955955553799868" lon="9.505361840128899">
        <ele>1799.0899999999999</ele>
        <time>2024-09-22T07:26:35Z</time>
      </trkpt>
      <trkpt lat="45.955896293744445" lon="9.506003726273775">
        <ele>1809.3800000000001</ele>
        <time>2024-09-22T07:27:40Z</time>
      </trkpt>
      <trkpt lat="45.955758998170495" lon="9.506629351526499">
        <ele>1818.03</ele>
        <time>2024-09-22T07:28:40Z</time>
      </trkpt>
      <trkpt lat="45.955738127231598" lon="9.507275344803929">
        <ele>1825.45</ele>
        <time>2024-09-22T07:29:36Z</time>
      </trkpt>
      <trkpt lat="45.955685153603554" lon="9.507936844602227">
        <ele>1831.96</ele>
        <time>2024-09-22T07:30:29Z</time>
      </trkpt>
      <trkpt lat="45.95569378696382" lon="9.508556015789509">
        <ele>1841.5699999999999</ele>
        <time>2024-09-22T07:31:39Z</time>
      </trkpt>
      <trkpt lat="45.955631677061319" lon="9.509190358221531">
        <ele>1850.3399999999999</ele>
        <time>2024-09-22T07:32:38Z</time>
      </trkpt>
      <trkpt lat="45.955547941848636" lon="9.509872812777758">
        <ele>1860.5999999999999</ele>
        <time>2024-09-22T07:33:42Z</time>
      </trkpt>
      <trkpt lat="45.955527070909739" lon="9.510563481599093">
        <ele>1872.8199999999999</ele>
        <time>2024-09-22T07:34:50Z</time>
      </trkpt>
      <trkpt lat="45.955425398424268" lon="9.51116630807519">
        <ele>1883.8900000000001</ele>
        <time>2024-09-22T07:35:58Z</time>
      </trkpt>
      <trkpt lat="45.955495554953814" lon="9.511871812865138">
        <ele>1894.0699999999999</ele>
        <time>2024-09-22T07:37:11Z</time>
      </trkpt>
      <trkpt lat="45.955683141946793" lon="9.512448655441403">
        <ele>1900.23</ele>
        <time>2024-09-22T07:40:43Z</time>
      </trkpt>
      <trkpt lat="45.955710131675005" lon="9.51297084800899">
        <ele>1904.1400000000001</ele>
        <time>2024-09-22T07:45:08Z</time>
      </trkpt>
      <trkpt lat="45.955823622643948" lon="9.513548696413636">
        <ele>1916.8699999999999</ele>
        <time>2024-09-22T07:46:26Z</time>
      </trkpt>
      <trkpt lat="45.955957397818565" lon="9.514028141275048">
        <ele>1936.95</ele>
        <time>2024-09-22T07:48:17Z</time>
      </trkpt>
      <trkpt lat="45.95605387352407" lon="9.51453935354948">
        <ele>1948.1500000000001</ele>
        <time>2024-09-22T07:49:43Z</time>
      </trkpt>
      <trkpt lat="45.956096285954118" lon="9.515066742897034">
        <ele>1963.3699999999999</ele>
        <time>2024-09-22T07:51:10Z</time>
      </trkpt>
      <trkpt lat="45.956043312326074" lon="9.515465218573809">
        <ele>1982.4200000000001</ele>
        <time>2024-09-22T07:53:01Z</time>
      </trkpt>
      <trkpt lat="45.95619460567832" lon="9.515517186373472">
        <ele>1995.79</ele>
        <time>2024-09-22T07:55:11Z</time>
      </trkpt>
      <trkpt lat="45.956219751387835" lon="9.515562113374472">
        <ele>2010.6099999999999</ele>
        <time>2024-09-22T07:56:47Z</time>
      </trkpt>
      <trkpt lat="45.956131657585502" lon="9.515571082010865">
        <ele>2029.01</ele>
        <time>2024-09-22T07:58:40Z</time>
      </trkpt>
      <trkpt lat="45.956005929037929" lon="9.515669820830226">
        <ele>2034.5999999999999</ele>
        <time>2024-09-22T08:05:29Z</time>
      </trkpt>
      <trkpt lat="45.956119084730744" lon="9.515993110835552">
        <ele>2037.28</ele>
        <time>2024-09-22T08:14:37Z</time>
      </trkpt>
      <trkpt lat="45.956075079739094" lon="9.516504909843206">
        <ele>2042.1300000000001</ele>
        <time>2024-09-22T08:18:35Z</time>
      </trkpt>
      <trkpt lat="45.956196533516049" lon="9.516757288947702">
        <ele>2055.71</ele>
        <time>2024-09-22T08:21:36Z</time>
      </trkpt>
      <trkpt lat="45.956263253465295" lon="9.516851669177413">
        <ele>2070.3299999999999</ele>
        <time>2024-09-22T08:30:52Z</time>
      </trkpt>
      <trkpt lat="45.956325279548764" lon="9.517016289755702">
        <ele>2078.8499999999999</ele>
        <time>2024-09-22T08:33:18Z</time>
      </trkpt>
      <trkpt lat="45.956404656171799" lon="9.51693020761013">
        <ele>2085.7199999999998</ele>
        <time>2024-09-22T08:36:02Z</time>
      </trkpt>
      <trkpt lat="45.956635745242238" lon="9.51704797334969">
        <ele>2106.79</ele>
        <time>2024-09-22T08:41:37Z</time>
      </trkpt>
      <trkpt lat="45.956722749397159" lon="9.517210246995091">
        <ele>2113.1999999999998</ele>
        <time>2024-09-22T08:45:28Z</time>
      </trkpt>
      <trkpt lat="45.956549746915698" lon="9.517191220074892">
        <ele>2118.25</ele>
        <time>2024-09-22T08:48:04Z</time>
      </trkpt>
      <trkpt lat="45.956588052213192" lon="9.517359444871545">
        <ele>2121.4000000000001</ele>
        <time>2024-09-22T08:51:08Z</time>
      </trkpt>
      <trkpt lat="45.956461988389492" lon="9.517442090436816">
        <ele>2127.0300000000002</ele>
        <time>2024-09-22T08:56:21Z</time>
      </trkpt>
      <trkpt lat="45.956303821876645" lon="9.517340334132314">
        <ele>2125.46</ele>
        <time>2024-09-22T09:01:16Z</time>
      </trkpt>
      <trkpt lat="45.955896209925413" lon="9.517412502318621">
        <ele>2120.4699999999998</ele>
        <time>2024-09-22T09:03:51Z</time>
      </trkpt>
      <trkpt lat="45.955665959045291" lon="9.517467403784394">
        <ele>2127.1399999999999</ele>
        <time>2024-09-22T09:10:33Z</time>
      </trkpt>
      <trkpt lat="45.95553738065064" lon="9.517441336065531">
        <ele>2129.5900000000001</ele>
        <time>2024-09-22T09:14:59Z</time>
      </trkpt>
      <trkpt lat="45.955486670136452" lon="9.517311081290245">
        <ele>2135.9499999999998</ele>
        <time>2024-09-22T09:17:44Z</time>
      </trkpt>
      <trkpt lat="45.955301765352488" lon="9.51739389449358">
        <ele>2132.1900000000001</ele>
        <time>2024-09-22T09:24:38Z</time>
      </trkpt>
      <trkpt lat="45.955254575237632" lon="9.517311248928309">
        <ele>2127.9099999999999</ele>
        <time>2024-09-22T09:27:58Z</time>
      </trkpt>
      <trkpt lat="45.95510738901794" lon="9.517368413507938">
        <ele>2118.5999999999999</ele>
        <time>2024-09-22T09:31:13Z</time>
      </trkpt>
      <trkpt lat="45.95511669293046" lon="9.517381656914949">
        <ele>2118.5900000000001</ele>
        <time>2024-09-22T09:34:42Z</time>
      </trkpt>
      <trkpt lat="45.955093894153833" lon="9.517447622492909">
        <ele>2123.3299999999999</ele>
        <time>2024-09-22T09:39:10Z</time>
      </trkpt>
      <trkpt lat="45.955051314085722" lon="9.517490370199084">
        <ele>2131.8800000000001</ele>
        <time>2024-09-22T09:42:29Z</time>
      </trkpt>
      <trkpt lat="45.955036897212267" lon="9.517397079616785">
        <ele>2138.1799999999998</ele>
        <time>2024-09-22T09:47:10Z</time>
      </trkpt>
      <trkpt lat="45.954965399578214" lon="9.517396241426468">
        <ele>2142.8299999999999</ele>
        <time>2024-09-22T09:50:03Z</time>
      </trkpt>
      <trkpt lat="45.954845706000924" lon="9.517270429059863">
        <ele>2142.71</ele>
        <time>2024-09-22T09:57:18Z</time>
      </trkpt>
      <trkpt lat="45.95478929579258" lon="9.517146544530988">
        <ele>2139.9499999999998</ele>
        <time>2024-09-22T09:59:52Z</time>
      </trkpt>
      <trkpt lat="45.954643618315458" lon="9.517096085473895">
        <ele>2151.0300000000002</ele>
        <time>2024-09-22T10:03:23Z</time>
      </trkpt>
      <trkpt lat="45.954660885035992" lon="9.517041267827153">
        <ele>2169.6599999999999</ele>
        <time>2024-09-22T11:21:20Z</time>
      </trkpt>
      <trkpt lat="45.954622160643339" lon="9.517028611153364">
        <ele>2169.1999999999998</ele>
        <time>2024-09-22T12:01:02Z</time>
      </trkpt>
      <trkpt lat="45.954342791810632" lon="9.516939511522651">
        <ele>2156.4400000000001</ele>
        <time>2024-09-22T12:05:08Z</time>
      </trkpt>
      <trkpt lat="45.954135423526168" lon="9.516973122954369">
        <ele>2162.02</ele>
        <time>2024-09-22T12:07:41Z</time>
      </trkpt>
      <trkpt lat="45.953769385814667" lon="9.516895087435842">
        <ele>2163.4200000000001</ele>
        <time>2024-09-22T12:08:44Z</time>
      </trkpt>
      <trkpt lat="45.953372418880463" lon="9.516894249245524">
        <ele>2155.4699999999998</ele>
        <time>2024-09-22T12:09:41Z</time>
      </trkpt>
      <trkpt lat="45.953165972605348" lon="9.516559392213821">
        <ele>2153.3899999999999</ele>
        <time>2024-09-22T12:12:29Z</time>
      </trkpt>
      <trkpt lat="45.953043010085821" lon="9.51610048301518">
        <ele>2137.6999999999998</ele>
        <time>2024-09-22T12:16:36Z</time>
      </trkpt>
      <trkpt lat="45.95311626791954" lon="9.515526071190834">
        <ele>2139.23</ele>
        <time>2024-09-22T12:17:21Z</time>
      </trkpt>
      <trkpt lat="45.952984252944589" lon="9.514955598860979">
        <ele>2142.3499999999999</ele>
        <time>2024-09-22T12:18:23Z</time>
      </trkpt>
      <trkpt lat="45.953166056424379" lon="9.51446894556284">
        <ele>2126.5300000000002</ele>
        <time>2024-09-22T12:20:46Z</time>
      </trkpt>
      <trkpt lat="45.953206121921539" lon="9.51420902274549">
        <ele>2107.1399999999999</ele>
        <time>2024-09-22T12:24:39Z</time>
      </trkpt>
      <trkpt lat="45.95312649384141" lon="9.514097794890404">
        <ele>2089.4200000000001</ele>
        <time>2024-09-22T12:30:03Z</time>
      </trkpt>
      <trkpt lat="45.953048039227724" lon="9.513588091358542">
        <ele>2069.8699999999999</ele>
        <time>2024-09-22T12:31:42Z</time>
      </trkpt>
      <trkpt lat="45.95301023684442" lon="9.513466637581587">
        <ele>2064.5</ele>
        <time>2024-09-22T12:37:54Z</time>
      </trkpt>
      <trkpt lat="45.953295053914189" lon="9.513570405542851">
        <ele>2050.6300000000001</ele>
        <time>2024-09-22T12:43:25Z</time>
      </trkpt>
      <trkpt lat="45.953438803553581" lon="9.513655314221978">
        <ele>2034.47</ele>
        <time>2024-09-22T12:46:35Z</time>
      </trkpt>
      <trkpt lat="45.953622870147228" lon="9.513713652268052">
        <ele>2018.73</ele>
        <time>2024-09-22T12:49:03Z</time>
      </trkpt>
      <trkpt lat="45.953816911205649" lon="9.513850277289748">
        <ele>2003.03</ele>
        <time>2024-09-22T12:51:22Z</time>
      </trkpt>
      <trkpt lat="45.954049006104469" lon="9.514012802392244">
        <ele>1987.3399999999999</ele>
        <time>2024-09-22T12:53:15Z</time>
      </trkpt>
      <trkpt lat="45.954169621691108" lon="9.513880955055356">
        <ele>1971.5</ele>
        <time>2024-09-22T12:54:52Z</time>
      </trkpt>
      <trkpt lat="45.9543133713305" lon="9.513496812433004">
        <ele>1950.9100000000001</ele>
        <time>2024-09-22T12:56:21Z</time>
      </trkpt>
      <trkpt lat="45.954509926959872" lon="9.513289360329509">
        <ele>1933.3599999999999</ele>
        <time>2024-09-22T12:57:59Z</time>
      </trkpt>
      <trkpt lat="45.954760545864701" lon="9.512974033132196">
        <ele>1915.8499999999999</ele>
        <time>2024-09-22T12:59:12Z</time>
      </trkpt>
      <trkpt lat="45.95487043261528" lon="9.512502551078796">
        <ele>1900.3599999999999</ele>
        <time>2024-09-22T13:00:22Z</time>
      </trkpt>
      <trkpt lat="45.955100767314434" lon="9.512072810903192">
        <ele>1887.1700000000001</ele>
        <time>2024-09-22T13:01:25Z</time>
      </trkpt>
      <trkpt lat="45.955144353210926" lon="9.512009276077151">
        <ele>1879.6900000000001</ele>
        <time>2024-09-22T13:19:28Z</time>
      </trkpt>
      <trkpt lat="45.955158099532127" lon="9.512018747627735">
        <ele>1879.97</ele>
        <time>2024-09-22T13:23:31Z</time>
      </trkpt>
      <trkpt lat="45.955136055126786" lon="9.511732421815395">
        <ele>1877.6900000000001</ele>
        <time>2024-09-22T13:26:09Z</time>
      </trkpt>
      <trkpt lat="45.955261867493391" lon="9.511094810441136">
        <ele>1870.8499999999999</ele>
        <time>2024-09-22T13:26:54Z</time>
      </trkpt>
      <trkpt lat="45.955493962392211" lon="9.510525679215789">
        <ele>1868.5</ele>
        <time>2024-09-22T13:27:35Z</time>
      </trkpt>
      <trkpt lat="45.955572919920087" lon="9.50993207283318">
        <ele>1859.8</ele>
        <time>2024-09-22T13:28:16Z</time>
      </trkpt>
      <trkpt lat="45.955655900761485" lon="9.509319355711341">
        <ele>1850.5799999999999</ele>
        <time>2024-09-22T13:28:59Z</time>
      </trkpt>
      <trkpt lat="45.955718094483018" lon="9.508681492879987">
        <ele>1843.0599999999999</ele>
        <time>2024-09-22T13:29:41Z</time>
      </trkpt>
      <trkpt lat="45.955711808055639" lon="9.50806693173945">
        <ele>1831.5999999999999</ele>
        <time>2024-09-22T13:30:27Z</time>
      </trkpt>
      <trkpt lat="45.95572211779654" lon="9.507415406405926">
        <ele>1823.5</ele>
        <time>2024-09-22T13:31:09Z</time>
      </trkpt>
      <trkpt lat="45.955761093646288" lon="9.506761869415641">
        <ele>1818.3699999999999</ele>
        <time>2024-09-22T13:31:47Z</time>
      </trkpt>
      <trkpt lat="45.95571088604629" lon="9.506124425679445">
        <ele>1810.5899999999999</ele>
        <time>2024-09-22T13:32:30Z</time>
      </trkpt>
      <trkpt lat="45.955769894644618" lon="9.505484132096171">
        <ele>1802.77</ele>
        <time>2024-09-22T13:33:17Z</time>
      </trkpt>
      <trkpt lat="45.955872656777501" lon="9.504853310063481">
        <ele>1792.23</ele>
        <time>2024-09-22T13:34:08Z</time>
      </trkpt>
      <trkpt lat="45.956031829118729" lon="9.504267247393727">
        <ele>1787.02</ele>
        <time>2024-09-22T13:34:47Z</time>
      </trkpt>
      <trkpt lat="45.956109194085002" lon="9.503634078428149">
        <ele>1782</ele>
        <time>2024-09-22T13:35:32Z</time>
      </trkpt>
      <trkpt lat="45.956182619556785" lon="9.503003507852554">
        <ele>1779.9200000000001</ele>
        <time>2024-09-22T13:36:14Z</time>
      </trkpt>
      <trkpt lat="45.956482272595167" lon="9.502574522048235">
        <ele>1774.46</ele>
        <time>2024-09-22T13:36:54Z</time>
      </trkpt>
      <trkpt lat="45.95684596337378" lon="9.502190295606852">
        <ele>1767.1600000000001</ele>
        <time>2024-09-22T13:37:36Z</time>
      </trkpt>
      <trkpt lat="45.957179982215166" lon="9.501747898757458">
        <ele>1758.3299999999999</ele>
        <time>2024-09-22T13:38:20Z</time>
      </trkpt>
      <trkpt lat="45.957526322454214" lon="9.50134196318686">
        <ele>1752.3699999999999</ele>
        <time>2024-09-22T13:38:59Z</time>
      </trkpt>
      <trkpt lat="45.957862520590425" lon="9.500918425619602">
        <ele>1745.8599999999999</ele>
        <time>2024-09-22T13:39:44Z</time>
      </trkpt>
      <trkpt lat="45.958171896636486" lon="9.500447530299425">
        <ele>1736.77</ele>
        <time>2024-09-22T13:40:30Z</time>
      </trkpt>
      <trkpt lat="45.958499126136303" lon="9.499997422099114">
        <ele>1728.3800000000001</ele>
        <time>2024-09-22T13:41:11Z</time>
      </trkpt>
      <trkpt lat="45.958845717832446" lon="9.499605149030685">
        <ele>1721.03</ele>
        <time>2024-09-22T13:41:50Z</time>
      </trkpt>
      <trkpt lat="45.959143610671163" lon="9.499114472419024">
        <ele>1714.4400000000001</ele>
        <time>2024-09-22T13:42:30Z</time>
      </trkpt>
      <trkpt lat="45.959427757188678" lon="9.498618096113205">
        <ele>1708.6800000000001</ele>
        <time>2024-09-22T13:43:09Z</time>
      </trkpt>
      <trkpt lat="45.959605118259788" lon="9.498021639883518">
        <ele>1704.49</ele>
        <time>2024-09-22T13:43:48Z</time>
      </trkpt>
      <trkpt lat="45.959947938099504" lon="9.497620984911919">
        <ele>1695.8800000000001</ele>
        <time>2024-09-22T13:44:32Z</time>
      </trkpt>
      <trkpt lat="45.960168801248074" lon="9.497051350772381">
        <ele>1688.9100000000001</ele>
        <time>2024-09-22T13:45:11Z</time>
      </trkpt>
      <trkpt lat="45.960271814838052" lon="9.496458498761058">
        <ele>1683.4200000000001</ele>
        <time>2024-09-22T13:45:51Z</time>
      </trkpt>
      <trkpt lat="45.960294110700488" lon="9.495809152722359">
        <ele>1678.6099999999999</ele>
        <time>2024-09-22T13:46:27Z</time>
      </trkpt>
      <trkpt lat="45.9602434001863" lon="9.495174223557115">
        <ele>1674.48</ele>
        <time>2024-09-22T13:47:06Z</time>
      </trkpt>
      <trkpt lat="45.96015689894557" lon="9.49454952031374">
        <ele>1669.99</ele>
        <time>2024-09-22T13:47:44Z</time>
      </trkpt>
      <trkpt lat="45.960115408524871" lon="9.493935294449329">
        <ele>1670.9000000000001</ele>
        <time>2024-09-22T13:48:25Z</time>
      </trkpt>
      <trkpt lat="45.959845930337906" lon="9.493416957557201">
        <ele>1669.9100000000001</ele>
        <time>2024-09-22T13:49:08Z</time>
      </trkpt>
      <trkpt lat="45.959789184853435" lon="9.492995347827673">
        <ele>1666.96</ele>
        <time>2024-09-22T13:55:51Z</time>
      </trkpt>
      <trkpt lat="45.959847858175635" lon="9.492363687604666">
        <ele>1662.6700000000001</ele>
        <time>2024-09-22T13:56:36Z</time>
      </trkpt>
      <trkpt lat="45.960201574489474" lon="9.491936210542917">
        <ele>1658.01</ele>
        <time>2024-09-22T13:57:23Z</time>
      </trkpt>
      <trkpt lat="45.960670206695795" lon="9.49189480394125">
        <ele>1658.03</ele>
        <time>2024-09-22T13:58:11Z</time>
      </trkpt>
      <trkpt lat="45.961143700405955" lon="9.491748036816716">
        <ele>1654.0899999999999</ele>
        <time>2024-09-22T13:58:52Z</time>
      </trkpt>
      <trkpt lat="45.961339334025979" lon="9.491147389635444">
        <ele>1653.6800000000001</ele>
        <time>2024-09-22T13:59:32Z</time>
      </trkpt>
      <trkpt lat="45.961202457547188" lon="9.490511789917946">
        <ele>1654.4300000000001</ele>
        <time>2024-09-22T14:00:12Z</time>
      </trkpt>
      <trkpt lat="45.961267417296767" lon="9.489871328696609">
        <ele>1651.73</ele>
        <time>2024-09-22T14:00:52Z</time>
      </trkpt>
      <trkpt lat="45.961380992084742" lon="9.489251989871264">
        <ele>1645.6500000000001</ele>
        <time>2024-09-22T14:01:33Z</time>
      </trkpt>
      <trkpt lat="45.961306896060705" lon="9.488633070141077">
        <ele>1642.1800000000001</ele>
        <time>2024-09-22T14:02:13Z</time>
      </trkpt>
      <trkpt lat="45.96150697208941" lon="9.48826820589602">
        <ele>1642.8099999999999</ele>
        <time>2024-09-22T14:03:12Z</time>
      </trkpt>
      <trkpt lat="45.961432289332151" lon="9.487653141841292">
        <ele>1641.9400000000001</ele>
        <time>2024-09-22T14:05:47Z</time>
      </trkpt>
    </trkseg>
  </trk>

</gpx>